Time;durP1;ratioP1;P1;durP2;ratioP2;P2;SDS_P1;SDS_P2;PMS_P1;PMS_P2;Temp;Humidity;BMP_temperature;BMP_pressure;BME280_temperature;BME280_humidity;BME280_pressure;Samples;Min_cycle;Max_cycle;Signal;HPM_P1;HPM_P2
2022/08/14 00:00:16;;;;;;;45.87;36.50;;;33.00;99.90;;;;;;4993748;28;20050;-50
2022/08/14 00:02:43;;;;;;;47.10;36.92;;;33.00;99.90;;;;;;4993455;28;20260;-50
2022/08/14 00:05:11;;;;;;;47.13;35.42;;;33.00;99.90;;;;;;4993155;28;20038;-50
2022/08/14 00:07:38;;;;;;;48.58;36.50;;;33.00;99.90;;;;;;4993228;28;20057;-50
2022/08/14 00:10:07;;;;;;;46.00;36.42;;;33.00;99.90;;;;;;4993113;28;20034;-50
2022/08/14 00:12:34;;;;;;;48.67;35.97;;;33.00;99.90;;;;;;4992988;28;20026;-51
2022/08/14 00:15:04;;;;;;;45.97;37.38;;;33.00;99.90;;;;;;4992995;28;20180;-51
2022/08/14 00:17:29;;;;;;;48.95;37.70;;;32.90;99.90;;;;;;4991820;28;20022;-51
2022/08/14 00:19:55;;;;;;;44.10;34.90;;;33.00;99.90;;;;;;4992827;28;20010;-51
2022/08/14 00:22:21;;;;;;;47.05;35.92;;;33.00;99.90;;;;;;4993199;28;20030;-51
2022/08/14 00:24:47;;;;;;;45.22;35.88;;;33.00;99.90;;;;;;4992986;28;20030;-51
2022/08/14 00:27:13;;;;;;;46.45;36.92;;;32.90;99.90;;;;;;4979186;28;20030;-51
2022/08/14 00:29:38;;;;;;;46.40;38.08;;;33.00;99.90;;;;;;4992680;28;20038;-51
2022/08/14 00:32:05;;;;;;;43.00;34.17;;;33.00;99.90;;;;;;4992070;28;20375;-50
2022/08/14 00:34:30;;;;;;;44.40;34.33;;;33.00;99.90;;;;;;4992837;28;20022;-50
2022/08/14 00:36:56;;;;;;;40.20;33.80;;;33.00;99.90;;;;;;4992751;28;20492;-50
2022/08/14 00:39:22;;;;;;;44.08;35.25;;;32.90;99.90;;;;;;4992608;28;20034;-50
2022/08/14 00:41:48;;;;;;;46.53;35.43;;;32.90;99.90;;;;;;4992552;28;20032;-50
2022/08/14 00:44:15;;;;;;;43.63;34.58;;;32.90;99.90;;;;;;4988521;28;20106;-50
2022/08/14 00:46:41;;;;;;;45.78;36.05;;;32.90;99.90;;;;;;4980422;28;20034;-50
2022/08/14 00:49:08;;;;;;;41.50;35.20;;;32.90;99.90;;;;;;4992393;28;20038;-50
2022/08/14 00:51:34;;;;;;;48.95;35.83;;;32.90;99.90;;;;;;4992186;28;20018;-50
2022/08/14 00:54:01;;;;;;;43.45;34.28;;;32.90;99.90;;;;;;4992235;28;20549;-50
2022/08/14 00:56:28;;;;;;;42.85;33.22;;;32.90;99.90;;;;;;4992208;28;20030;-50
2022/08/14 00:58:57;;;;;;;40.97;32.90;;;32.90;99.90;;;;;;4992352;28;20113;-50
2022/08/14 01:01:23;;;;;;;40.45;34.88;;;32.90;99.90;;;;;;4992827;28;20565;-50
2022/08/14 01:03:51;;;;;;;40.03;33.45;;;32.90;99.90;;;;;;4992062;28;20030;-50
2022/08/14 01:06:17;;;;;;;42.47;34.90;;;32.90;99.90;;;;;;4992046;28;20478;-50
2022/08/14 01:08:43;;;;;;;41.80;33.88;;;32.90;99.90;;;;;;4991933;28;20041;-50
2022/08/14 01:11:14;;;;;;;38.87;32.03;;;32.90;99.90;;;;;;4991968;28;20111;-50
2022/08/14 01:13:42;;;;;;;40.03;32.10;;;32.90;99.90;;;;;;4992039;28;20062;-50
2022/08/14 01:16:12;;;;;;;41.47;32.13;;;32.90;99.90;;;;;;4991904;28;20026;-50
2022/08/14 01:21:32;;;;;;;38.80;32.17;;;32.90;99.90;;;;;;4962340;28;20034;-50
2022/08/14 01:23:58;;;;;;;42.05;32.33;;;32.80;99.90;;;;;;4992136;28;20027;-50
2022/08/14 01:26:25;;;;;;;37.67;30.60;;;32.80;99.90;;;;;;4990767;28;20034;-50
2022/08/14 01:28:56;;;;;;;42.63;33.35;;;32.90;99.90;;;;;;4991598;28;20034;-50
2022/08/14 01:31:28;;;;;;;37.63;30.35;;;32.80;99.90;;;;;;4991710;28;20073;-49
2022/08/14 01:33:57;;;;;;;39.75;30.52;;;32.80;99.90;;;;;;4991541;28;20018;-50
2022/08/14 01:36:25;;;;;;;42.20;32.97;;;32.80;99.90;;;;;;4991567;28;20378;-50
2022/08/14 01:38:55;;;;;;;38.22;31.83;;;32.90;99.90;;;;;;4991571;28;20026;-49
2022/08/14 01:41:22;;;;;;;35.15;27.70;;;32.90;99.90;;;;;;4991505;28;20050;-50
2022/08/14 01:43:59;;;;;;;34.45;29.25;;;32.80;99.90;;;;;;4991143;28;20379;-50
2022/08/14 01:46:28;;;;;;;32.88;27.65;;;32.80;99.90;;;;;;4979817;28;20026;-50
2022/08/14 01:48:56;;;;;;;38.78;29.52;;;32.80;99.90;;;;;;4991573;28;20034;-50
2022/08/14 01:51:23;;;;;;;37.60;31.25;;;32.80;99.90;;;;;;4990290;28;20467;-50
2022/08/14 01:53:53;;;;;;;42.75;30.42;;;32.80;99.90;;;;;;4991456;28;20104;-49
2022/08/14 01:56:20;;;;;;;37.50;28.77;;;32.80;99.90;;;;;;4991409;28;20024;-50
2022/08/14 01:58:48;;;;;;;35.95;29.55;;;32.80;99.90;;;;;;4991769;28;20482;-49
2022/08/14 02:01:19;;;;;;;37.22;30.17;;;32.80;99.90;;;;;;4991784;28;20515;-50
2022/08/14 02:03:45;;;;;;;35.55;28.95;;;32.80;99.90;;;;;;4991457;28;20053;-49
2022/08/14 02:06:12;;;;;;;36.60;29.88;;;32.80;99.90;;;;;;4991419;28;20386;-49
2022/08/14 02:08:39;;;;;;;37.88;29.83;;;32.80;99.90;;;;;;4991073;28;20041;-49
2022/08/14 02:11:17;;;;;;;39.65;30.25;;;32.70;99.90;;;;;;4991298;28;20026;-50
2022/08/14 02:14:00;;;;;;;35.67;27.23;;;32.70;99.90;;;;;;4991259;28;20076;-49
2022/08/14 02:16:29;;;;;;;36.10;28.17;;;32.70;99.90;;;;;;4979123;28;20030;-49
2022/08/14 02:18:57;;;;;;;37.55;30.13;;;32.70;99.90;;;;;;4991216;28;20112;-50
2022/08/14 02:21:24;;;;;;;33.45;27.77;;;32.70;99.90;;;;;;4991197;28;20019;-50
2022/08/14 02:23:51;;;;;;;35.28;29.13;;;32.80;99.90;;;;;;4991382;28;20117;-49
2022/08/14 02:26:23;;;;;;;30.42;25.08;;;32.70;99.90;;;;;;4991078;28;20069;-50
2022/08/14 02:28:52;;;;;;;35.55;27.00;;;32.70;99.90;;;;;;4991104;28;20122;-50
2022/08/14 02:31:18;;;;;;;34.08;27.25;;;32.70;99.90;;;;;;4991140;28;20026;-49
2022/08/14 02:33:46;;;;;;;36.10;28.67;;;32.70;99.90;;;;;;4991089;28;20050;-49
2022/08/14 02:36:13;;;;;;;33.47;28.90;;;32.70;99.90;;;;;;4991040;28;20264;-49
2022/08/14 02:38:39;;;;;;;33.25;27.98;;;32.70;99.90;;;;;;4991184;28;20459;-49
2022/08/14 02:41:09;;;;;;;34.63;28.53;;;32.70;99.90;;;;;;4991145;28;20113;-49
2022/08/14 02:43:37;;;;;;;33.05;28.27;;;32.70;99.90;;;;;;4991041;28;20266;-49
2022/08/14 02:46:08;;;;;;;29.55;25.33;;;32.70;99.90;;;;;;4977508;28;20061;-49
2022/08/14 02:48:35;;;;;;;33.45;22.60;;;32.70;99.90;;;;;;4991008;28;20561;-49
2022/08/14 02:51:06;;;;;;;33.42;25.63;;;32.70;99.90;;;;;;4991197;28;20030;-49
2022/08/14 02:53:32;;;;;;;32.63;25.92;;;32.70;99.90;;;;;;4991229;28;20093;-49
2022/08/14 02:56:00;;;;;;;31.05;25.95;;;32.70;99.90;;;;;;4992155;28;20058;-49
2022/08/14 02:58:26;;;;;;;32.65;26.88;;;32.70;99.90;;;;;;4993132;28;20030;-49
2022/08/14 03:00:54;;;;;;;30.65;26.00;;;32.60;99.90;;;;;;5005916;23;20069;-51
2022/08/14 03:03:22;;;;;;;32.30;26.40;;;32.70;99.90;;;;;;4994300;28;20037;-51
2022/08/14 03:05:50;;;;;;;32.85;27.00;;;32.60;99.90;;;;;;4994415;28;20542;-51
2022/08/14 03:08:17;;;;;;;30.90;26.77;;;32.70;99.90;;;;;;4994191;28;20042;-51
2022/08/14 03:10:45;;;;;;;31.92;26.05;;;32.70;99.90;;;;;;4994234;28;20022;-51
2022/08/14 03:13:11;;;;;;;30.17;26.23;;;32.60;99.90;;;;;;4994269;28;20050;-51
2022/08/14 03:15:45;;;;;;;31.23;24.95;;;32.60;99.90;;;;;;4994156;28;20034;-52
2022/08/14 03:18:12;;;;;;;31.70;25.92;;;32.60;99.90;;;;;;4994249;28;20025;-51
2022/08/14 03:20:38;;;;;;;29.83;24.90;;;32.60;99.90;;;;;;4994066;28;20037;-51
2022/08/14 03:23:05;;;;;;;31.50;26.58;;;32.60;99.90;;;;;;4994202;28;20117;-51
2022/08/14 03:25:32;;;;;;;29.42;25.15;;;32.60;99.90;;;;;;4993997;28;20018;-51
2022/08/14 03:28:02;;;;;;;26.98;22.38;;;32.60;99.90;;;;;;4994126;28;20084;-51
2022/08/14 03:30:30;;;;;;;28.17;22.75;;;32.60;99.90;;;;;;5008708;28;20030;-51
2022/08/14 03:32:56;;;;;;;29.50;22.38;;;32.60;99.90;;;;;;4992589;28;20630;-51
2022/08/14 03:35:23;;;;;;;27.65;22.98;;;32.60;99.90;;;;;;4993729;28;20502;-52
2022/08/14 03:37:51;;;;;;;29.67;24.00;;;32.60;99.90;;;;;;4993960;28;20487;-51
2022/08/14 03:40:21;;;;;;;27.90;23.52;;;32.60;99.90;;;;;;4993823;28;20030;-51
2022/08/14 03:42:51;;;;;;;27.73;22.75;;;32.50;99.90;;;;;;4993652;28;20019;-52
2022/08/14 03:45:17;;;;;;;25.88;22.23;;;32.50;99.90;;;;;;4983483;28;20042;-51
2022/08/14 03:47:43;;;;;;;29.05;23.90;;;32.60;99.90;;;;;;4987627;28;20025;-52
2022/08/14 03:50:10;;;;;;;25.27;22.48;;;32.60;99.90;;;;;;4980553;28;20034;-52
2022/08/14 03:52:41;;;;;;;28.75;24.10;;;32.60;99.90;;;;;;4993627;28;20030;-51
2022/08/14 03:55:11;;;;;;;26.90;21.38;;;32.60;99.90;;;;;;4993509;28;20030;-51
2022/08/14 03:57:38;;;;;;;25.27;21.75;;;32.50;99.90;;;;;;4993620;28;20026;-51
2022/08/14 04:00:09;;;;;;;26.25;21.25;;;32.50;99.90;;;;;;4994055;28;20129;-51
2022/08/14 04:02:37;;;;;;;25.25;21.42;;;32.50;99.90;;;;;;4994023;28;20030;-51
2022/08/14 04:05:05;;;;;;;26.10;21.10;;;32.50;99.90;;;;;;4992038;28;20356;-51
2022/08/14 04:07:31;;;;;;;24.63;21.65;;;32.50;99.90;;;;;;4992098;28;20026;-51
2022/08/14 04:09:57;;;;;;;26.73;21.80;;;32.50;99.90;;;;;;4993322;28;20041;-52
2022/08/14 04:12:23;;;;;;;26.98;22.35;;;32.50;99.90;;;;;;4991793;28;20019;-51
2022/08/14 04:14:51;;;;;;;28.88;21.08;;;32.50;99.90;;;;;;4991940;28;20093;-51
2022/08/14 04:17:18;;;;;;;25.45;20.85;;;32.50;99.90;;;;;;4992949;28;20552;-51
2022/08/14 04:19:45;;;;;;;24.92;22.15;;;32.50;99.90;;;;;;4993047;28;20053;-51
2022/08/14 04:22:12;;;;;;;26.60;22.03;;;32.50;99.90;;;;;;4993014;28;20022;-51
2022/08/14 04:24:39;;;;;;;26.10;19.67;;;32.50;99.90;;;;;;4992976;28;20264;-51
2022/08/14 04:27:13;;;;;;;24.52;20.40;;;32.50;99.90;;;;;;4991434;28;20022;-52
2022/08/14 04:29:41;;;;;;;23.23;20.60;;;32.50;99.90;;;;;;4992966;28;20034;-51
2022/08/14 04:32:10;;;;;;;26.00;20.70;;;32.50;99.90;;;;;;4992716;28;20026;-51
2022/08/14 04:34:38;;;;;;;22.15;17.92;;;32.50;99.90;;;;;;4992732;28;20034;-51
2022/08/14 04:45:24;;;;;;;28.17;20.52;;;32.50;99.90;;;;;;4981503;28;20101;-51
2022/08/14 04:50:35;;;;;;;23.35;20.85;;;32.40;99.90;;;;;;4992628;28;20514;-51
2022/08/14 04:53:01;;;;;;;22.85;19.75;;;32.40;99.90;;;;;;4992199;28;21293;-51
2022/08/14 04:55:28;;;;;;;23.85;20.60;;;32.40;99.90;;;;;;4992417;28;20088;-51
2022/08/14 04:57:55;;;;;;;25.95;19.63;;;32.40;99.90;;;;;;4992313;28;20034;-51
2022/08/14 05:00:21;;;;;;;25.85;19.20;;;32.40;99.90;;;;;;4992048;28;20066;-51
2022/08/14 05:02:48;;;;;;;22.13;17.70;;;32.40;99.90;;;;;;4992265;28;20082;-51
2022/08/14 05:05:13;;;;;;;23.48;18.90;;;32.40;99.90;;;;;;4992208;28;20074;-51
2022/08/14 05:07:41;;;;;;;23.23;17.23;;;32.40;99.90;;;;;;4992088;28;20090;-51
2022/08/14 05:10:07;;;;;;;;;;;32.40;99.90;;;;;;4992470;28;20038;-51
2022/08/14 05:12:32;;;;;;;23.58;18.05;;;32.40;99.90;;;;;;4991952;28;20005;-51
2022/08/14 05:14:58;;;;;;;22.13;19.58;;;32.40;99.90;;;;;;4991916;28;20026;-51
2022/08/14 05:17:25;;;;;;;24.58;19.77;;;32.40;99.90;;;;;;4991750;28;20548;-50
2022/08/14 05:19:51;;;;;;;22.27;18.25;;;32.40;99.90;;;;;;4991665;28;20030;-51
2022/08/14 05:22:18;;;;;;;21.10;17.37;;;32.30;99.90;;;;;;4991888;28;20054;-52
2022/08/14 05:24:46;;;;;;;23.70;18.93;;;32.40;99.90;;;;;;4991733;28;20414;-51
2022/08/14 05:27:12;;;;;;;20.73;18.08;;;32.40;99.90;;;;;;4992184;28;20474;-52
2022/08/14 05:29:39;;;;;;;22.17;17.40;;;32.40;99.90;;;;;;4991726;28;20121;-51
2022/08/14 05:32:06;;;;;;;21.02;17.33;;;32.40;99.90;;;;;;4991545;28;20037;-51
2022/08/14 05:34:32;;;;;;;23.40;18.33;;;32.40;99.90;;;;;;4991635;28;20041;-51
2022/08/14 05:37:01;;;;;;;21.85;19.25;;;32.40;99.90;;;;;;4991847;28;20034;-51
2022/08/14 05:39:28;;;;;;;25.00;17.77;;;32.30;99.90;;;;;;4991468;28;20109;-52
2022/08/14 05:41:55;;;;;;;21.17;18.02;;;32.30;99.90;;;;;;4991567;28;20033;-52
2022/08/14 05:44:21;;;;;;;22.02;18.17;;;32.30;99.90;;;;;;4988245;28;20042;-52
2022/08/14 05:46:47;;;;;;;20.33;17.35;;;32.30;99.90;;;;;;4981229;28;20073;-52
2022/08/14 05:49:14;;;;;;;21.27;17.23;;;32.30;99.90;;;;;;4991627;28;20044;-51
2022/08/14 05:51:40;;;;;;;19.73;17.00;;;32.30;99.90;;;;;;4991332;28;20382;-52
2022/08/14 05:54:06;;;;;;;25.55;16.83;;;32.30;99.90;;;;;;4991459;28;20023;-51
2022/08/14 05:56:32;;;;;;;19.70;17.10;;;32.30;99.90;;;;;;4991437;28;20093;-51
2022/08/14 05:58:58;;;;;;;21.25;16.88;;;32.30;99.90;;;;;;4991590;28;20022;-50
2022/08/14 06:01:24;;;;;;;27.00;17.30;;;32.30;99.90;;;;;;4991434;28;20141;-51
2022/08/14 06:03:50;;;;;;;28.42;17.67;;;32.30;99.90;;;;;;4991364;28;20367;-51
2022/08/14 06:06:17;;;;;;;26.33;17.70;;;32.30;99.90;;;;;;4991480;28;20475;-51
2022/08/14 06:08:43;;;;;;;22.17;16.95;;;32.30;99.90;;;;;;4990078;28;20038;-52
2022/08/14 06:11:09;;;;;;;25.60;17.65;;;32.30;99.90;;;;;;4991269;28;20395;-51
2022/08/14 06:13:41;;;;;;;22.33;18.02;;;32.30;99.90;;;;;;4991319;28;20084;-51
2022/08/14 06:16:07;;;;;;;27.42;17.00;;;32.30;99.90;;;;;;4991249;28;20034;-51
2022/08/14 06:18:34;;;;;;;25.92;17.50;;;32.20;99.90;;;;;;4991246;28;20023;-50
2022/08/14 06:21:03;;;;;;;23.92;16.30;;;32.20;99.90;;;;;;4991033;28;20121;-51
2022/08/14 06:23:29;;;;;;;24.48;16.67;;;32.20;99.90;;;;;;4989921;28;20478;-50
2022/08/14 06:25:55;;;;;;;25.65;17.38;;;32.20;99.90;;;;;;4991066;28;20023;-51
2022/08/14 06:28:24;;;;;;;23.23;17.35;;;32.20;99.90;;;;;;4991433;28;20038;-51
2022/08/14 06:30:51;;;;;;;21.17;15.93;;;32.10;99.90;;;;;;4993784;28;20116;-51
2022/08/14 06:33:18;;;;;;;20.27;16.07;;;32.10;99.90;;;;;;4995182;28;20022;-52
2022/08/14 06:35:45;;;;;;;23.88;16.30;;;32.10;99.90;;;;;;4994588;28;20571;-52
2022/08/14 06:38:15;;;;;;;20.10;16.73;;;32.10;99.90;;;;;;4994772;28;20467;-52
2022/08/14 06:40:41;;;;;;;19.45;14.80;;;32.00;99.90;;;;;;4994682;28;20070;-52
2022/08/14 06:43:10;;;;;;;21.20;16.92;;;32.00;99.90;;;;;;4994677;28;20057;-52
2022/08/14 06:45:38;;;;;;;19.95;15.68;;;32.00;99.90;;;;;;4981092;28;20082;-52
2022/08/14 06:48:13;;;;;;;20.58;14.85;;;32.00;99.90;;;;;;4994492;28;20038;-52
2022/08/14 06:50:38;;;;;;;18.35;15.05;;;32.00;99.90;;;;;;4994640;28;20434;-52
2022/08/14 06:53:04;;;;;;;16.50;14.10;;;31.90;99.90;;;;;;4994475;28;20034;-52
2022/08/14 06:55:30;;;;;;;20.92;15.52;;;31.90;99.90;;;;;;4994390;28;20026;-52
2022/08/14 06:57:56;;;;;;;20.95;14.70;;;31.90;99.90;;;;;;4994231;28;20030;-52
2022/08/14 07:00:27;;;;;;;18.08;14.68;;;31.90;99.90;;;;;;4992887;28;20069;-51
2022/08/14 07:05:55;;;;;;;16.85;14.52;;;31.90;99.90;;;;;;4994288;28;20616;-52
2022/08/14 07:08:27;;;;;;;17.08;13.98;;;31.80;99.90;;;;;;4994434;28;20113;-51
2022/08/14 07:10:55;;;;;;;25.55;15.15;;;31.80;99.90;;;;;;4994152;28;20038;-51
2022/08/14 07:13:23;;;;;;;19.02;14.43;;;31.80;99.90;;;;;;4994547;28;20482;-52
2022/08/14 07:15:51;;;;;;;19.33;13.52;;;31.80;99.90;;;;;;4994065;28;20052;-51
2022/08/14 07:18:27;;;;;;;16.85;13.23;;;31.80;99.90;;;;;;4994170;28;20113;-52
2022/08/14 07:20:54;;;;;;;19.25;14.63;;;31.80;99.90;;;;;;4993824;28;20495;-52
2022/08/14 07:23:22;;;;;;;19.17;13.98;;;31.80;99.90;;;;;;4994300;28;20109;-51
2022/08/14 07:25:50;;;;;;;14.80;12.82;;;31.70;99.90;;;;;;4994054;28;20394;-52
2022/08/14 07:28:25;;;;;;;16.63;13.38;;;31.70;99.90;;;;;;4993951;28;20535;-51
2022/08/14 07:30:56;;;;;;;16.15;13.52;;;31.70;99.90;;;;;;5009105;28;20080;-52
2022/08/14 07:33:24;;;;;;;19.58;14.02;;;31.70;99.90;;;;;;4979467;28;20442;-52
2022/08/14 07:35:50;;;;;;;16.75;12.70;;;31.70;99.90;;;;;;4993360;28;20106;-51
2022/08/14 07:38:17;;;;;;;17.60;13.43;;;31.70;99.90;;;;;;4993710;28;20106;-52
2022/08/14 07:40:44;;;;;;;14.98;12.57;;;31.70;99.90;;;;;;4993293;28;20096;-52
2022/08/14 07:43:09;;;;;;;15.63;12.38;;;31.70;99.90;;;;;;4993513;28;20118;-52
2022/08/14 07:45:35;;;;;;;17.02;12.70;;;31.70;99.90;;;;;;4979881;28;20554;-52
2022/08/14 07:48:01;;;;;;;18.40;12.80;;;31.60;99.90;;;;;;4993389;28;20098;-52
2022/08/14 07:50:27;;;;;;;15.32;12.18;;;31.60;99.90;;;;;;4993423;28;20134;-51
2022/08/14 07:52:52;;;;;;;15.23;12.13;;;31.60;99.90;;;;;;4993284;28;20092;-52
2022/08/14 07:55:18;;;;;;;17.42;12.38;;;31.60;99.90;;;;;;4993397;28;20037;-52
2022/08/14 07:57:46;;;;;;;16.02;12.00;;;31.60;99.90;;;;;;4993348;28;20022;-51
2022/08/14 08:00:18;;;;;;;15.10;11.50;;;31.60;99.90;;;;;;4993102;28;20035;-51
2022/08/14 08:02:46;;;;;;;13.55;11.68;;;31.60;99.90;;;;;;4993232;28;20044;-52
2022/08/14 08:05:13;;;;;;;14.55;11.48;;;31.60;99.90;;;;;;4993019;28;20019;-52
2022/08/14 08:07:39;;;;;;;;;;;31.60;99.90;;;;;;4993461;28;20026;-52
2022/08/14 08:10:32;;;;;;;16.10;12.00;;;31.50;99.90;;;;;;4993186;28;19976;-51
2022/08/14 08:13:07;;;;;;;11.77;10.10;;;31.60;99.90;;;;;;4993003;28;20368;-51
2022/08/14 08:15:36;;;;;;;15.27;11.02;;;31.50;99.90;;;;;;4992935;28;20026;-52
2022/08/14 08:18:04;;;;;;;12.15;10.20;;;31.50;99.90;;;;;;4993021;28;20045;-52
2022/08/14 08:20:32;;;;;;;13.48;10.30;;;31.60;99.90;;;;;;4992753;28;20113;-52
2022/08/14 08:22:58;;;;;;;13.57;9.82;;;31.50;99.90;;;;;;4992808;28;20396;-52
2022/08/14 08:25:26;;;;;;;13.18;10.35;;;31.50;99.90;;;;;;4993028;28;20031;-52
2022/08/14 08:28:12;;;;;;;13.32;10.15;;;31.50;99.90;;;;;;4992976;28;20022;-51
2022/08/14 08:30:41;;;;;;;16.52;11.80;;;31.50;99.90;;;;;;4981505;28;20042;-52
2022/08/14 08:33:14;;;;;;;14.75;10.15;;;31.50;99.90;;;;;;4992631;28;20033;-52
2022/08/14 08:35:40;;;;;;;14.13;9.85;;;31.50;99.90;;;;;;4992531;28;20033;-52
2022/08/14 08:38:09;;;;;;;12.18;10.85;;;31.40;99.90;;;;;;4992623;28;20026;-52
2022/08/14 08:40:40;;;;;;;14.25;10.77;;;31.40;99.90;;;;;;4992308;28;20497;-52
2022/08/14 08:43:08;;;;;;;14.25;10.20;;;31.40;99.90;;;;;;4992334;28;20128;-52
2022/08/14 08:45:35;;;;;;;14.55;10.25;;;31.50;99.90;;;;;;4979266;28;20034;-55
2022/08/14 08:48:03;;;;;;;13.07;10.20;;;31.50;99.90;;;;;;4992124;28;20022;-52
2022/08/14 08:50:38;;;;;;;;;;;31.50;99.90;;;;;;4992733;28;20106;-51
2022/08/14 08:53:09;;;;;;;13.20;10.10;;;31.40;99.90;;;;;;4991731;28;20362;-51
2022/08/14 08:55:38;;;;;;;11.15;9.07;;;31.40;99.90;;;;;;4992315;28;20030;-52
2022/08/14 08:58:07;;;;;;;12.43;9.57;;;31.40;99.90;;;;;;4992128;28;20105;-51
2022/08/14 09:00:34;;;;;;;14.13;10.27;;;31.40;99.90;;;;;;4992123;28;20042;-52
2022/08/14 09:03:07;;;;;;;14.27;10.40;;;31.40;99.90;;;;;;4992093;28;20109;-52
2022/08/14 09:05:36;;;;;;;12.50;8.95;;;31.40;99.90;;;;;;4991985;28;20030;-52
2022/08/14 09:08:14;;;;;;;13.93;8.85;;;31.40;99.90;;;;;;4992024;28;20022;-52
2022/08/14 09:10:40;;;;;;;11.35;9.15;;;31.30;99.90;;;;;;4991739;28;20038;-52
2022/08/14 09:13:06;;;;;;;11.45;9.13;;;31.30;99.90;;;;;;4991976;28;20033;-53
2022/08/14 09:15:32;;;;;;;11.73;9.02;;;31.40;99.90;;;;;;4991937;28;20449;-52
2022/08/14 09:17:59;;;;;;;10.93;9.30;;;31.40;99.90;;;;;;4991940;28;20033;-52
2022/08/14 09:20:25;;;;;;;13.63;9.32;;;31.30;99.90;;;;;;4991778;28;20022;-52
2022/08/14 09:22:52;;;;;;;11.13;8.40;;;31.40;99.90;;;;;;4991775;28;20479;-52
2022/08/14 09:25:18;;;;;;;12.20;8.60;;;31.30;99.90;;;;;;4991634;28;20026;-52
2022/08/14 09:27:44;;;;;;;9.10;7.78;;;31.30;99.90;;;;;;4991609;28;20368;-52
2022/08/14 09:30:10;;;;;;;11.63;8.60;;;31.30;99.90;;;;;;4977762;28;20035;-52
2022/08/14 09:32:55;;;;;;;10.90;8.37;;;31.30;99.90;;;;;;4991570;28;20069;-52
2022/08/14 09:35:29;;;;;;;10.10;8.45;;;31.30;99.90;;;;;;4991497;28;20093;-52
2022/08/14 09:38:21;;;;;;;10.70;7.57;;;31.30;99.90;;;;;;4991567;28;20022;-52
2022/08/14 09:40:58;;;;;;;10.18;8.57;;;31.30;99.90;;;;;;4991470;28;20084;-53
2022/08/14 09:43:44;;;;;;;10.98;7.80;;;31.30;99.90;;;;;;4991565;28;20459;-52
2022/08/14 09:46:11;;;;;;;9.75;7.68;;;31.30;99.90;;;;;;4977746;28;20030;-52
2022/08/14 09:48:37;;;;;;;10.23;7.72;;;31.30;99.90;;;;;;4991441;28;20121;-52
2022/08/14 09:51:05;;;;;;;10.30;7.32;;;31.30;99.90;;;;;;4991447;28;20038;-52
2022/08/14 09:53:41;;;;;;;9.80;7.90;;;31.30;99.90;;;;;;4991466;28;20018;-50
2022/08/14 09:56:07;;;;;;;11.85;8.13;;;31.30;99.90;;;;;;4991225;28;20033;-53
2022/08/14 09:58:42;;;;;;;9.75;7.72;;;31.30;99.90;;;;;;4991081;28;20029;-50
2022/08/14 10:01:16;;;;;;;14.48;8.15;;;31.30;99.90;;;;;;4991086;28;20042;-53
2022/08/14 10:03:55;;;;;;;11.15;8.27;;;31.30;99.90;;;;;;4991386;28;20517;-52
2022/08/14 10:06:28;;;;;;;10.10;7.70;;;31.30;99.90;;;;;;4994630;28;20030;-51
2022/08/14 10:08:59;;;;;;;9.15;7.00;;;31.40;99.90;;;;;;4995048;28;20039;-51
2022/08/14 10:11:29;;;;;;;9.52;7.10;;;31.30;99.90;;;;;;4995426;28;20022;-51
2022/08/14 10:14:01;;;;;;;8.65;7.05;;;31.30;99.90;;;;;;4982633;28;20030;-51
2022/08/14 10:16:31;;;;;;;8.90;7.22;;;31.30;99.90;;;;;;4993636;28;20026;-51
2022/08/14 10:19:05;;;;;;;9.40;7.13;;;31.30;99.90;;;;;;4985014;28;20039;-52
2022/08/14 10:21:32;;;;;;;9.40;6.95;;;31.30;99.90;;;;;;4993048;28;20065;-51
2022/08/14 10:23:58;;;;;;;9.88;7.20;;;31.30;99.90;;;;;;4995242;28;20069;-52
2022/08/14 10:26:24;;;;;;;9.93;6.88;;;31.30;99.90;;;;;;4995094;28;20030;-51
2022/08/14 10:28:52;;;;;;;8.85;6.70;;;31.30;99.90;;;;;;4994840;28;20026;-50
2022/08/14 10:31:32;;;;;;;9.85;6.35;;;31.30;99.90;;;;;;4995089;28;20065;-55
2022/08/14 10:33:58;;;;;;;9.43;6.78;;;31.30;99.90;;;;;;4993321;28;20033;-51
2022/08/14 10:36:31;;;;;;;9.60;6.85;;;31.30;99.90;;;;;;4994794;28;20466;-52
2022/08/14 10:38:59;;;;;;;8.65;7.13;;;31.30;99.90;;;;;;4994832;28;20038;-52
2022/08/14 10:41:38;;;;;;;10.65;7.40;;;31.30;99.90;;;;;;4981195;28;20442;-52
2022/08/14 10:44:13;;;;;;;8.93;6.45;;;31.30;99.90;;;;;;5008760;28;20027;-52
2022/08/14 10:46:57;;;;;;;11.93;6.57;;;31.30;99.90;;;;;;4983253;28;20022;-52
2022/08/14 10:49:25;;;;;;;8.73;5.95;;;31.30;99.90;;;;;;4994335;28;20049;-51
2022/08/14 10:51:55;;;;;;;8.50;5.60;;;31.30;99.90;;;;;;4994508;28;20037;-52
2022/08/14 10:54:33;;;;;;;8.32;5.90;;;31.30;99.90;;;;;;4994422;28;20077;-51
2022/08/14 10:57:23;;;;;;;8.32;5.78;;;31.30;99.90;;;;;;4994423;28;20026;-51
2022/08/14 11:00:10;;;;;;;8.90;5.70;;;31.30;99.90;;;;;;4994436;28;20045;-51
2022/08/14 11:02:38;;;;;;;9.52;6.43;;;31.30;99.90;;;;;;4994524;28;20031;-51
2022/08/14 11:05:06;;;;;;;8.65;5.80;;;31.30;99.90;;;;;;4994426;28;20081;-52
2022/08/14 11:07:38;;;;;;;7.47;5.57;;;31.30;99.90;;;;;;5009514;28;20073;-52
2022/08/14 11:10:11;;;;;;;8.45;6.13;;;31.30;99.90;;;;;;4994396;28;20138;-51
2022/08/14 11:12:46;;;;;;;7.55;5.65;;;31.30;99.90;;;;;;4994328;28;20037;-51
2022/08/14 11:15:18;;;;;;;11.05;6.68;;;31.30;99.90;;;;;;4993699;28;20387;-52
2022/08/14 11:17:46;;;;;;;8.25;6.20;;;31.30;99.90;;;;;;4994019;28;20467;-52
2022/08/14 11:20:13;;;;;;;9.15;6.13;;;31.30;99.90;;;;;;4994099;28;20485;-51
2022/08/14 11:22:40;;;;;;;8.00;5.78;;;31.30;99.90;;;;;;4994200;28;20046;-52
2022/08/14 11:25:08;;;;;;;9.20;6.55;;;31.30;99.90;;;;;;4994003;28;20026;-52
2022/08/14 11:27:34;;;;;;;9.02;6.07;;;31.30;99.90;;;;;;4994095;28;20031;-52
2022/08/14 11:30:05;;;;;;;7.82;6.18;;;31.30;99.90;;;;;;4993640;28;20034;-52
2022/08/14 11:32:31;;;;;;;12.05;5.60;;;31.30;99.90;;;;;;4993827;28;20026;-52
2022/08/14 11:35:02;;;;;;;9.95;6.38;;;31.30;99.90;;;;;;4993665;28;20057;-52
2022/08/14 11:37:32;;;;;;;9.07;6.57;;;31.30;99.90;;;;;;4993536;28;20057;-52
2022/08/14 11:40:02;;;;;;;9.30;5.72;;;31.40;99.90;;;;;;4993861;28;20026;-52
2022/08/14 11:42:29;;;;;;;7.63;5.85;;;31.30;99.90;;;;;;4993491;28;20029;-52
2022/08/14 11:45:03;;;;;;;9.20;6.35;;;31.40;99.90;;;;;;4985946;28;20483;-50
2022/08/14 11:47:32;;;;;;;8.60;6.25;;;31.30;99.90;;;;;;4988562;28;20027;-53
2022/08/14 11:49:58;;;;;;;10.75;6.10;;;31.40;99.90;;;;;;4994408;28;20031;-52
2022/08/14 11:52:36;;;;;;;9.63;6.72;;;31.40;99.90;;;;;;4993475;28;20089;-52
2022/08/14 11:55:11;;;;;;;9.45;6.88;;;31.40;99.90;;;;;;4993575;28;20475;-52
2022/08/14 11:57:43;;;;;;;9.43;7.03;;;31.30;99.90;;;;;;5008679;28;20426;-51
2022/08/14 12:00:18;;;;;;;10.38;6.80;;;31.40;99.90;;;;;;4992131;28;20046;-51
2022/08/14 12:02:55;;;;;;;10.30;7.47;;;31.40;99.90;;;;;;4993261;28;20360;-51
2022/08/14 12:05:38;;;;;;;11.55;7.47;;;31.40;99.90;;;;;;4993058;28;20026;-52
2022/08/14 12:08:08;;;;;;;12.45;8.35;;;31.30;99.90;;;;;;4993225;28;20114;-51
2022/08/14 12:10:38;;;;;;;10.80;7.90;;;31.40;99.90;;;;;;4993020;28;20117;-52
2022/08/14 12:13:18;;;;;;;15.20;10.10;;;31.40;99.90;;;;;;4992993;28;20023;-52
2022/08/14 12:15:55;;;;;;;17.08;11.85;;;31.40;99.90;;;;;;4993021;28;20026;-51
2022/08/14 12:18:33;;;;;;;19.35;13.43;;;31.40;99.90;;;;;;4992928;28;20463;-51
2022/08/14 12:21:13;;;;;;;17.88;14.15;;;31.30;99.90;;;;;;5007835;28;20037;-51
2022/08/14 12:23:39;;;;;;;21.10;14.18;;;31.40;99.90;;;;;;4991552;28;20030;-51
2022/08/14 12:26:09;;;;;;;21.33;15.65;;;31.40;99.90;;;;;;4992798;28;20033;-51
2022/08/14 12:28:35;;;;;;;22.35;16.25;;;31.30;99.90;;;;;;4991697;28;20022;-51
2022/08/14 12:31:15;;;;;;;23.27;15.45;;;31.30;99.90;;;;;;4992881;28;20041;-53
2022/08/14 12:33:42;;;;;;;21.48;14.90;;;31.40;99.90;;;;;;4992812;28;20027;-51
2022/08/14 12:36:19;;;;;;;20.52;14.13;;;31.40;99.90;;;;;;5007939;28;20025;-51
2022/08/14 12:38:44;;;;;;;19.05;14.15;;;31.40;99.90;;;;;;4992638;28;20120;-52
2022/08/14 12:41:14;;;;;;;20.15;15.10;;;31.40;99.90;;;;;;4992531;28;20049;-51
2022/08/14 12:44:06;;;;;;;21.33;15.70;;;31.40;99.90;;;;;;4992558;28;20041;-51
2022/08/14 12:46:33;;;;;;;21.23;14.68;;;31.40;99.90;;;;;;4985212;28;20038;-51
2022/08/14 12:49:07;;;;;;;;;;;31.40;99.90;;;;;;4983999;28;20039;-52
2022/08/14 12:51:34;;;;;;;23.95;16.10;;;31.40;99.90;;;;;;4992518;28;20413;-52
2022/08/14 12:54:14;;;;;;;21.30;14.68;;;31.50;99.90;;;;;;4992384;28;20030;-52
2022/08/14 12:56:40;;;;;;;19.45;13.70;;;31.50;99.90;;;;;;4992303;28;20118;-52
2022/08/14 12:59:06;;;;;;;21.95;13.80;;;31.50;99.90;;;;;;4986194;28;20102;-52